Time;durP1;ratioP1;P1;durP2;ratioP2;P2;SDS_P1;SDS_P2;PMS_P1;PMS_P2;Temp;Humidity;BMP_temperature;BMP_pressure;BME280_temperature;BME280_humidity;BME280_pressure;Samples;Min_cycle;Max_cycle;Signal;HPM_P1;HPM_P2
2021/10/26 00:02:03;;;;;;;0.75;0.75;;;10.70;99.90;;;;;;4938571;29;20059;-77
2021/10/26 00:04:28;;;;;;;0.45;0.38;;;10.60;99.90;;;;;;4938428;29;20035;-77
2021/10/26 00:06:54;;;;;;;0.25;0.25;;;10.60;99.90;;;;;;4938227;29;20040;-77
2021/10/26 00:09:20;;;;;;;2.70;1.33;;;10.60;99.90;;;;;;4937646;29;20124;-77
2021/10/26 00:11:46;;;;;;;2.00;1.90;;;10.50;99.90;;;;;;4937929;29;20032;-77
2021/10/26 00:14:11;;;;;;;0.68;0.22;;;10.50;99.90;;;;;;4937043;29;20043;-77
2021/10/26 00:16:37;;;;;;;0.15;0.15;;;10.50;99.90;;;;;;4937988;29;20051;-77
2021/10/26 00:19:03;;;;;;;0.47;0.15;;;10.50;99.90;;;;;;4937770;29;20403;-77
2021/10/26 00:21:29;;;;;;;2.42;1.27;;;10.60;99.90;;;;;;4936566;29;20403;-77
2021/10/26 00:23:54;;;;;;;0.22;0.22;;;10.60;99.90;;;;;;4937861;29;20505;-77
2021/10/26 00:26:20;;;;;;;0.20;0.20;;;10.60;99.90;;;;;;4938074;29;20039;-77
2021/10/26 00:28:46;;;;;;;0.13;0.13;;;10.50;99.90;;;;;;4938042;29;20032;-77
2021/10/26 00:31:11;;;;;;;1.35;0.65;;;10.50;99.90;;;;;;4937784;29;20043;-77
2021/10/26 00:33:37;;;;;;;1.35;0.80;;;10.40;99.90;;;;;;4923055;29;20376;-77
2021/10/26 00:36:03;;;;;;;0.00;0.00;;;10.40;99.90;;;;;;4936502;29;20028;-77
2021/10/26 00:38:29;;;;;;;0.22;0.22;;;10.30;99.90;;;;;;4938062;29;20026;-77
2021/10/26 00:40:56;;;;;;;0.00;0.00;;;10.30;99.90;;;;;;4937524;29;20032;-77
2021/10/26 00:43:22;;;;;;;0.47;0.47;;;10.20;99.90;;;;;;4937537;29;20031;-77
2021/10/26 00:45:48;;;;;;;0.57;0.52;;;10.10;99.90;;;;;;4937002;29;20031;-77
2021/10/26 00:48:14;;;;;;;0.03;0.03;;;10.00;99.90;;;;;;4937358;29;20390;-77
2021/10/26 00:50:40;;;;;;;0.90;0.90;;;9.90;99.90;;;;;;4937440;29;20027;-77
2021/10/26 00:53:05;;;;;;;0.13;0.13;;;9.90;99.90;;;;;;4937328;29;20030;-77
2021/10/26 00:55:31;;;;;;;0.28;0.25;;;9.80;99.90;;;;;;4937488;29;20070;-77
2021/10/26 00:57:57;;;;;;;0.25;0.25;;;9.80;99.90;;;;;;4937244;29;20032;-77
2021/10/26 01:00:23;;;;;;;3.20;1.27;;;9.80;99.90;;;;;;4937172;29;20028;-77
2021/10/26 01:02:49;;;;;;;4.38;0.80;;;9.70;99.90;;;;;;4936711;29;20051;-77
2021/10/26 01:05:15;;;;;;;1.17;0.88;;;9.80;99.90;;;;;;4936828;29;20079;-77
2021/10/26 01:07:41;;;;;;;0.25;0.25;;;9.70;99.90;;;;;;4936787;29;20031;-77
2021/10/26 01:10:08;;;;;;;0.08;0.08;;;9.70;99.90;;;;;;4937068;29;20443;-77
2021/10/26 01:12:35;;;;;;;0.40;0.40;;;9.80;99.90;;;;;;4935781;29;20111;-77
2021/10/26 01:15:02;;;;;;;0.28;0.28;;;9.90;99.90;;;;;;4919896;29;20503;-77
2021/10/26 01:17:27;;;;;;;4.85;0.52;;;9.90;99.90;;;;;;4935646;29;20015;-77
2021/10/26 01:19:56;;;;;;;1.38;0.93;;;9.90;99.90;;;;;;4937016;29;20032;-77
2021/10/26 01:22:24;;;;;;;0.20;0.20;;;9.90;99.90;;;;;;4936946;29;20434;-77
2021/10/26 01:24:51;;;;;;;0.43;0.38;;;9.90;99.90;;;;;;4937181;29;20035;-77
2021/10/26 01:27:18;;;;;;;0.00;0.00;;;9.90;99.90;;;;;;4919698;29;20032;-77
2021/10/26 01:29:44;;;;;;;5.05;1.75;;;9.80;99.90;;;;;;4936717;29;20035;-77
2021/10/26 01:32:13;;;;;;;0.00;0.00;;;9.80;99.90;;;;;;4936526;29;20020;-77
2021/10/26 01:34:38;;;;;;;1.05;1.05;;;9.80;99.90;;;;;;4936768;29;20024;-77
2021/10/26 01:37:07;;;;;;;0.63;0.55;;;9.80;99.90;;;;;;4935432;29;20035;-77
2021/10/26 01:39:34;;;;;;;6.25;2.03;;;9.80;99.90;;;;;;4936655;29;20034;-77
2021/10/26 01:42:01;;;;;;;0.00;0.00;;;9.80;99.90;;;;;;4936435;29;20111;-77
2021/10/26 01:44:28;;;;;;;0.13;0.05;;;9.80;99.90;;;;;;4936597;29;20032;-77
2021/10/26 01:46:54;;;;;;;0.15;0.15;;;9.80;99.90;;;;;;4935878;29;20027;-77
2021/10/26 01:49:21;;;;;;;8.07;1.17;;;9.70;99.90;;;;;;4936445;29;20038;-77
2021/10/26 01:51:47;;;;;;;5.95;0.75;;;9.70;99.90;;;;;;4949902;28;20028;-77
2021/10/26 01:54:13;;;;;;;0.00;0.00;;;9.60;99.90;;;;;;4951162;29;20028;-77
2021/10/26 01:56:40;;;;;;;3.75;0.43;;;9.60;99.90;;;;;;4936195;29;20048;-77
2021/10/26 01:59:06;;;;;;;1.75;1.25;;;9.70;99.90;;;;;;4936423;29;20443;-77
2021/10/26 02:01:32;;;;;;;1.10;0.50;;;9.60;99.90;;;;;;4936353;29;20078;-77
2021/10/26 02:03:57;;;;;;;3.70;2.05;;;9.70;99.90;;;;;;4936227;29;20039;-78
2021/10/26 02:06:23;;;;;;;0.05;0.05;;;9.70;99.90;;;;;;4935849;29;20051;-77
2021/10/26 02:08:48;;;;;;;0.00;0.00;;;9.70;99.90;;;;;;4935660;29;20028;-76
2021/10/26 02:11:15;;;;;;;0.28;0.28;;;9.60;99.90;;;;;;4935764;29;20031;-77
2021/10/26 02:13:40;;;;;;;0.00;0.00;;;9.60;99.90;;;;;;4936169;29;20096;-77
2021/10/26 02:16:06;;;;;;;2.42;1.33;;;9.60;99.90;;;;;;4935910;29;20027;-77
2021/10/26 02:18:32;;;;;;;0.00;0.00;;;9.60;99.90;;;;;;4936002;29;20031;-77
2021/10/26 02:20:59;;;;;;;2.45;0.52;;;9.50;99.90;;;;;;4935845;29;20074;-77
2021/10/26 02:23:24;;;;;;;0.63;0.30;;;9.50;99.90;;;;;;4935908;29;20403;-77
2021/10/26 02:25:50;;;;;;;0.00;0.00;;;9.50;99.90;;;;;;4936032;29;20042;-77
2021/10/26 02:28:16;;;;;;;0.10;0.10;;;9.50;99.90;;;;;;4935446;29;20039;-77
2021/10/26 02:30:43;;;;;;;0.00;0.00;;;9.40;99.90;;;;;;4935910;29;20435;-77
2021/10/26 02:33:10;;;;;;;3.03;0.82;;;9.50;99.90;;;;;;4920794;29;20159;-77
2021/10/26 02:35:36;;;;;;;0.08;0.08;;;9.40;99.90;;;;;;4935678;29;20518;-77
2021/10/26 02:38:02;;;;;;;0.10;0.10;;;9.40;99.90;;;;;;4934605;29;20036;-77
2021/10/26 02:40:28;;;;;;;0.70;0.17;;;9.30;99.90;;;;;;4935695;29;20436;-77
2021/10/26 02:42:54;;;;;;;0.43;0.43;;;9.30;99.90;;;;;;4935419;29;20059;-77
2021/10/26 02:45:20;;;;;;;1.45;0.45;;;9.40;99.90;;;;;;4935150;29;20040;-77
2021/10/26 02:47:46;;;;;;;0.05;0.05;;;9.30;99.90;;;;;;4918989;29;20126;-78
2021/10/26 02:50:12;;;;;;;0.22;0.22;;;9.30;99.90;;;;;;4935215;29;20082;-77
2021/10/26 02:52:38;;;;;;;2.53;0.90;;;9.30;99.90;;;;;;4935251;29;20047;-77
2021/10/26 02:55:06;;;;;;;0.00;0.00;;;9.30;99.90;;;;;;4935468;29;20030;-77
2021/10/26 02:57:31;;;;;;;0.00;0.00;;;9.20;99.90;;;;;;4932924;29;20067;-77
2021/10/26 02:59:57;;;;;;;0.00;0.00;;;9.20;99.90;;;;;;4935534;29;20548;-77
2021/10/26 03:02:23;;;;;;;0.22;0.22;;;9.20;99.90;;;;;;4935233;29;20110;-77
2021/10/26 03:04:49;;;;;;;0.40;0.10;;;9.20;99.90;;;;;;4935023;29;20051;-77
2021/10/26 03:07:15;;;;;;;0.38;0.17;;;9.20;99.90;;;;;;4934876;29;20090;-76
2021/10/26 03:09:41;;;;;;;0.32;0.10;;;9.20;99.90;;;;;;4935057;29;20118;-77
2021/10/26 03:12:07;;;;;;;0.20;0.20;;;9.20;99.90;;;;;;4934990;29;20047;-77
2021/10/26 03:14:33;;;;;;;0.45;0.35;;;9.20;99.90;;;;;;4935375;29;20387;-77
2021/10/26 03:16:58;;;;;;;0.00;0.00;;;9.30;99.90;;;;;;4934891;29;20028;-77
2021/10/26 03:19:24;;;;;;;0.52;0.10;;;9.30;99.90;;;;;;4935178;29;20031;-77
2021/10/26 03:21:50;;;;;;;0.15;0.15;;;9.30;99.90;;;;;;4918029;29;20028;-77
2021/10/26 03:24:15;;;;;;;0.00;0.00;;;9.30;99.90;;;;;;4934329;29;20115;-76
2021/10/26 03:26:41;;;;;;;0.13;0.13;;;9.30;99.90;;;;;;4934828;29;20070;-77
2021/10/26 03:29:07;;;;;;;0.75;0.73;;;9.30;99.90;;;;;;4934889;29;20507;-77
2021/10/26 03:31:32;;;;;;;0.03;0.03;;;9.30;99.90;;;;;;4935043;29;20056;-77
2021/10/26 03:33:58;;;;;;;0.00;0.00;;;9.50;99.90;;;;;;4934692;29;20036;-77
2021/10/26 03:36:24;;;;;;;0.65;0.43;;;9.50;99.90;;;;;;4934881;29;20047;-77
2021/10/26 03:38:51;;;;;;;0.00;0.00;;;9.50;99.90;;;;;;4932815;29;20043;-77
2021/10/26 03:41:17;;;;;;;0.47;0.40;;;9.60;99.90;;;;;;4934834;29;20023;-77
2021/10/26 03:43:42;;;;;;;0.00;0.00;;;9.60;99.90;;;;;;4934965;29;20031;-77
2021/10/26 03:46:08;;;;;;;0.80;0.20;;;9.60;99.90;;;;;;4934624;29;20506;-77
2021/10/26 03:48:34;;;;;;;0.17;0.17;;;9.60;99.90;;;;;;4934554;29;20027;-77
2021/10/26 03:51:00;;;;;;;0.08;0.08;;;9.50;99.90;;;;;;4934544;29;20127;-77
2021/10/26 03:53:27;;;;;;;0.30;0.30;;;9.50;99.90;;;;;;4933538;29;20032;-77
2021/10/26 03:55:53;;;;;;;0.00;0.00;;;9.50;99.90;;;;;;4934909;29;20027;-77
2021/10/26 03:58:18;;;;;;;0.03;0.03;;;9.50;99.90;;;;;;4934624;29;20035;-77
2021/10/26 04:00:44;;;;;;;0.00;0.00;;;9.50;99.90;;;;;;4934847;29;20032;-77
2021/10/26 04:03:10;;;;;;;0.00;0.00;;;9.40;99.90;;;;;;4933686;29;20043;-77
2021/10/26 04:10:54;;;;;;;0.00;0.00;;;9.50;99.90;;;;;;4933945;29;20042;-77
2021/10/26 04:13:22;;;;;;;0.00;0.00;;;9.50;99.90;;;;;;4934620;29;20110;-77
2021/10/26 04:15:49;;;;;;;0.00;0.00;;;9.50;99.90;;;;;;4937309;29;20027;-77
2021/10/26 04:18:14;;;;;;;0.00;0.00;;;9.60;99.90;;;;;;4936674;29;20035;-77
2021/10/26 04:20:40;;;;;;;0.05;0.05;;;9.60;99.90;;;;;;4938182;29;20036;-77
2021/10/26 04:23:07;;;;;;;0.00;0.00;;;9.60;99.90;;;;;;4938108;29;20063;-77
2021/10/26 04:25:32;;;;;;;0.40;0.40;;;9.60;99.90;;;;;;4938227;29;20036;-77
2021/10/26 04:28:02;;;;;;;0.00;0.00;;;9.60;99.90;;;;;;4937657;29;20044;-77
2021/10/26 04:30:28;;;;;;;0.00;0.00;;;9.60;99.90;;;;;;4938107;29;20027;-77
2021/10/26 04:32:53;;;;;;;0.00;0.00;;;9.60;99.90;;;;;;4922476;29;20031;-77
2021/10/26 04:35:19;;;;;;;1.35;1.10;;;9.50;99.90;;;;;;4937839;29;20418;-77
2021/10/26 04:37:45;;;;;;;0.20;0.20;;;9.50;99.90;;;;;;4936776;29;20463;-77
2021/10/26 04:40:11;;;;;;;0.00;0.00;;;9.40;99.90;;;;;;4930907;29;20522;-77
2021/10/26 04:42:37;;;;;;;0.00;0.00;;;9.30;99.90;;;;;;4935783;29;20174;-77
2021/10/26 04:45:04;;;;;;;0.10;0.10;;;9.20;99.90;;;;;;4937762;29;20103;-77
2021/10/26 04:47:30;;;;;;;0.00;0.00;;;9.20;99.90;;;;;;4937000;29;20034;-77
2021/10/26 04:49:55;;;;;;;0.10;0.10;;;9.20;99.90;;;;;;4937148;29;20439;-77
2021/10/26 04:52:22;;;;;;;0.00;0.00;;;9.10;99.90;;;;;;4936542;29;20031;-77
2021/10/26 04:54:48;;;;;;;0.08;0.08;;;9.10;99.90;;;;;;4936132;29;20030;-77
2021/10/26 04:57:15;;;;;;;0.15;0.15;;;9.10;99.90;;;;;;4936874;29;20020;-77
2021/10/26 04:59:41;;;;;;;0.90;0.30;;;9.10;99.90;;;;;;4919670;29;20036;-77
2021/10/26 05:02:07;;;;;;;3.63;1.15;;;9.10;99.90;;;;;;4920066;29;20135;-77
2021/10/26 05:04:32;;;;;;;0.08;0.08;;;9.20;99.90;;;;;;4936985;29;20131;-77
2021/10/26 05:06:58;;;;;;;0.65;0.52;;;9.20;99.90;;;;;;4936947;29;20059;-77
2021/10/26 05:09:24;;;;;;;0.30;0.30;;;9.20;99.90;;;;;;4936836;29;20031;-78
2021/10/26 05:11:50;;;;;;;0.00;0.00;;;9.30;99.90;;;;;;4935554;29;20035;-77
2021/10/26 05:14:16;;;;;;;0.93;0.88;;;9.30;99.90;;;;;;4937130;29;20028;-78
2021/10/26 05:16:44;;;;;;;2.35;1.00;;;9.40;99.90;;;;;;4936732;29;20031;-78
2021/10/26 05:19:11;;;;;;;0.47;0.47;;;9.40;99.90;;;;;;4936908;29;20023;-77
2021/10/26 05:21:37;;;;;;;0.03;0.03;;;9.40;99.90;;;;;;4937193;29;20032;-77
2021/10/26 05:24:03;;;;;;;0.15;0.08;;;9.40;99.90;;;;;;4936720;29;20094;-77
2021/10/26 05:26:33;;;;;;;0.08;0.08;;;9.50;99.90;;;;;;4935974;29;20475;-77
2021/10/26 05:28:59;;;;;;;4.18;1.55;;;9.40;99.90;;;;;;4936803;29;20119;-77
2021/10/26 05:31:25;;;;;;;0.63;0.63;;;9.40;99.90;;;;;;4919737;29;20072;-78
2021/10/26 05:33:50;;;;;;;0.00;0.00;;;9.40;99.90;;;;;;4935052;29;20039;-78
2021/10/26 05:36:16;;;;;;;0.00;0.00;;;9.40;99.90;;;;;;4915535;29;20025;-78
2021/10/26 05:38:42;;;;;;;0.00;0.00;;;9.40;99.90;;;;;;4907304;29;20063;-79
2021/10/26 05:41:11;;;;;;;0.00;0.00;;;9.40;99.90;;;;;;4934418;29;20032;-77
2021/10/26 05:43:38;;;;;;;0.08;0.08;;;9.30;99.90;;;;;;4937305;29;20140;-79
2021/10/26 05:46:03;;;;;;;0.00;0.00;;;9.40;99.90;;;;;;4936281;29;20499;-77
2021/10/26 05:48:31;;;;;;;0.00;0.00;;;9.30;99.90;;;;;;4943416;29;20031;-77
2021/10/26 05:50:57;;;;;;;0.00;0.00;;;9.30;99.90;;;;;;4943154;29;20031;-77
2021/10/26 05:53:23;;;;;;;0.47;0.30;;;9.30;99.90;;;;;;4950641;29;20019;-77
2021/10/26 05:55:48;;;;;;;0.10;0.10;;;9.30;99.90;;;;;;4939094;29;20032;-78
2021/10/26 05:58:14;;;;;;;0.00;0.00;;;9.30;99.90;;;;;;4948587;29;20039;-79
2021/10/26 06:00:42;;;;;;;0.32;0.32;;;9.40;99.90;;;;;;4933941;29;20462;-78
2021/10/26 06:03:08;;;;;;;0.28;0.28;;;9.40;99.90;;;;;;4936215;29;20028;-78
2021/10/26 06:05:34;;;;;;;0.00;0.00;;;9.40;99.90;;;;;;4951432;28;20418;-78
2021/10/26 06:08:00;;;;;;;0.13;0.13;;;9.40;99.90;;;;;;4937844;29;20074;-78
2021/10/26 06:10:27;;;;;;;0.00;0.00;;;9.40;99.90;;;;;;4935765;29;20031;-77
2021/10/26 06:12:59;;;;;;;0.00;0.00;;;9.40;99.90;;;;;;4942217;29;20051;-78
2021/10/26 06:15:25;;;;;;;1.75;1.27;;;9.40;99.90;;;;;;4917618;29;20040;-78
2021/10/26 06:17:50;;;;;;;0.00;0.00;;;9.40;99.90;;;;;;4920629;29;20478;-78
2021/10/26 06:20:16;;;;;;;1.10;0.95;;;9.50;99.90;;;;;;4933371;29;20053;-78
2021/10/26 06:22:43;;;;;;;0.00;0.00;;;9.50;99.90;;;;;;4938200;29;20043;-78
2021/10/26 06:25:09;;;;;;;0.00;0.00;;;9.60;99.90;;;;;;4941501;29;20491;-79
2021/10/26 06:27:34;;;;;;;0.00;0.00;;;9.60;99.90;;;;;;4936861;29;20032;-78
2021/10/26 06:30:00;;;;;;;0.40;0.40;;;9.60;99.90;;;;;;4940923;29;20547;-78
2021/10/26 06:32:29;;;;;;;0.00;0.00;;;9.60;99.90;;;;;;4945631;29;20028;-77
2021/10/26 06:34:55;;;;;;;0.00;0.00;;;9.60;99.90;;;;;;4939490;29;20047;-77
2021/10/26 06:37:22;;;;;;;0.00;0.00;;;9.60;99.90;;;;;;4928616;29;20031;-78
2021/10/26 06:39:49;;;;;;;0.00;0.00;;;9.60;99.90;;;;;;4935630;29;20415;-78
2021/10/26 06:42:15;;;;;;;0.00;0.00;;;9.60;99.90;;;;;;4935382;29;20036;-77
2021/10/26 06:44:41;;;;;;;0.00;0.00;;;9.60;99.90;;;;;;4935429;29;20035;-77
2021/10/26 06:47:06;;;;;;;0.95;0.17;;;9.70;99.90;;;;;;4941564;29;20027;-77
2021/10/26 06:49:32;;;;;;;0.25;0.25;;;9.70;99.90;;;;;;4949714;29;20516;-77
2021/10/26 06:51:57;;;;;;;0.00;0.00;;;9.80;99.90;;;;;;4949120;29;20913;-78
2021/10/26 06:54:23;;;;;;;0.00;0.00;;;9.80;99.90;;;;;;4932062;29;20035;-79
2021/10/26 06:56:49;;;;;;;1.17;0.55;;;9.80;99.90;;;;;;4929515;29;20086;-78
2021/10/26 06:59:14;;;;;;;0.00;0.00;;;9.80;99.90;;;;;;4911876;29;20072;-79
2021/10/26 07:01:40;;;;;;;1.77;1.42;;;9.80;99.90;;;;;;4933450;29;20027;-79
2021/10/26 07:04:06;;;;;;;0.90;0.35;;;9.80;99.90;;;;;;4933668;29;20033;-78
2021/10/26 07:06:31;;;;;;;0.20;0.20;;;9.80;99.90;;;;;;4930154;29;20514;-75
2021/10/26 07:08:57;;;;;;;1.08;0.85;;;9.80;99.90;;;;;;4937085;29;20042;-75
2021/10/26 07:11:23;;;;;;;0.00;0.00;;;9.80;99.90;;;;;;4923881;29;20063;-75
2021/10/26 07:13:49;;;;;;;0.75;0.75;;;9.80;99.90;;;;;;4936678;29;20070;-75
2021/10/26 07:16:15;;;;;;;0.00;0.00;;;9.80;99.90;;;;;;4919488;29;20036;-75
2021/10/26 07:18:40;;;;;;;0.00;0.00;;;9.80;99.90;;;;;;4940690;29;20610;-77
2021/10/26 07:21:06;;;;;;;0.10;0.10;;;9.90;99.90;;;;;;4932029;29;20034;-76
2021/10/26 07:23:34;;;;;;;0.08;0.08;;;10.00;99.90;;;;;;4930834;29;20031;-75
2021/10/26 07:26:00;;;;;;;0.05;0.05;;;10.00;99.90;;;;;;4937556;29;20038;-73
2021/10/26 07:28:26;;;;;;;0.00;0.00;;;10.10;99.90;;;;;;4927868;29;20031;-73
2021/10/26 07:30:51;;;;;;;0.15;0.15;;;10.10;99.90;;;;;;4930198;29;20106;-74
2021/10/26 07:33:21;;;;;;;0.00;0.00;;;10.10;99.90;;;;;;4931193;29;20173;-75
2021/10/26 07:35:49;;;;;;;0.00;0.00;;;10.00;99.90;;;;;;4933058;29;20030;-74
2021/10/26 07:38:26;;;;;;;0.00;0.00;;;10.00;99.90;;;;;;4933480;29;20106;-77
2021/10/26 07:40:52;;;;;;;0.00;0.00;;;10.10;99.90;;;;;;4911823;29;20036;-77
2021/10/26 07:43:18;;;;;;;0.00;0.00;;;10.20;99.90;;;;;;4932762;29;20032;-77
2021/10/26 07:45:43;;;;;;;0.00;0.00;;;10.20;99.90;;;;;;4933168;29;20415;-77
2021/10/26 07:48:09;;;;;;;0.22;0.22;;;10.30;99.90;;;;;;4930259;29;20027;-77
2021/10/26 07:50:35;;;;;;;0.00;0.00;;;10.30;99.90;;;;;;4935785;29;20446;-77
2021/10/26 07:53:01;;;;;;;0.00;0.00;;;10.40;99.90;;;;;;4915558;29;20028;-77
2021/10/26 07:55:26;;;;;;;0.00;0.00;;;10.40;99.90;;;;;;4918247;29;20032;-77
2021/10/26 07:57:54;;;;;;;1.55;0.43;;;10.40;99.90;;;;;;4932513;29;20024;-77
2021/10/26 08:00:20;;;;;;;0.00;0.00;;;10.40;99.90;;;;;;4935179;29;20119;-77
2021/10/26 08:02:46;;;;;;;0.15;0.05;;;10.40;99.90;;;;;;4936092;29;20102;-76
2021/10/26 08:05:11;;;;;;;0.00;0.00;;;10.40;99.90;;;;;;4934345;29;20078;-77
2021/10/26 08:07:37;;;;;;;0.00;0.00;;;10.50;99.90;;;;;;4936415;29;20067;-75
2021/10/26 08:10:03;;;;;;;0.08;0.03;;;10.60;99.90;;;;;;4935903;29;20040;-76
2021/10/26 08:12:29;;;;;;;0.00;0.00;;;10.60;99.90;;;;;;4934649;29;20032;-76
2021/10/26 08:14:55;;;;;;;0.00;0.00;;;10.80;99.90;;;;;;4935771;29;20534;-75
2021/10/26 08:17:22;;;;;;;0.80;0.80;;;10.90;99.90;;;;;;4936107;29;20044;-77
2021/10/26 08:19:49;;;;;;;0.00;0.00;;;11.00;99.90;;;;;;4935388;29;20084;-75
2021/10/26 08:22:18;;;;;;;0.00;0.00;;;11.10;99.90;;;;;;4930281;29;20599;-76
2021/10/26 08:24:57;;;;;;;0.00;0.00;;;11.20;99.90;;;;;;4910725;29;20103;-76
2021/10/26 08:27:24;;;;;;;0.00;0.00;;;11.40;99.90;;;;;;4934803;29;20028;-76
2021/10/26 08:30:10;;;;;;;0.00;0.00;;;11.60;99.90;;;;;;4917199;29;20130;-76
2021/10/26 08:32:53;;;;;;;0.00;0.00;;;11.60;99.90;;;;;;4934980;29;20039;-76
2021/10/26 08:35:24;;;;;;;;;;;11.60;99.90;;;;;;4935025;29;20027;-76
2021/10/26 08:37:52;;;;;;;0.08;0.08;;;11.70;99.90;;;;;;4935918;29;19929;-74
2021/10/26 08:40:19;;;;;;;0.00;0.00;;;11.80;99.90;;;;;;4933007;29;20026;-76
2021/10/26 08:42:52;;;;;;;0.00;0.00;;;11.80;99.90;;;;;;4932504;29;20031;-77
2021/10/26 08:45:19;;;;;;;;;;;11.90;99.90;;;;;;4930075;29;20016;-77
2021/10/26 08:47:45;;;;;;;0.88;0.30;;;12.00;99.90;;;;;;4933602;29;19917;-76
2021/10/26 08:50:12;;;;;;;0.15;0.15;;;12.10;99.90;;;;;;4935022;29;20028;-77
2021/10/26 08:52:38;;;;;;;2.42;0.25;;;12.30;99.90;;;;;;4935846;29;20372;-75
2021/10/26 08:55:07;;;;;;;0.00;0.00;;;12.40;99.90;;;;;;4934384;29;20026;-76
2021/10/26 08:57:34;;;;;;;0.00;0.00;;;12.40;99.90;;;;;;4935805;29;20024;-75
2021/10/26 09:00:05;;;;;;;0.00;0.00;;;12.50;99.90;;;;;;4934874;29;20055;-76
2021/10/26 09:02:55;;;;;;;0.00;0.00;;;12.60;99.90;;;;;;4936157;29;20047;-75
2021/10/26 09:05:25;;;;;;;0.00;0.00;;;12.70;99.90;;;;;;4931564;29;20055;-76
2021/10/26 09:08:06;;;;;;;0.10;0.10;;;12.80;99.90;;;;;;4934955;29;20024;-76
2021/10/26 09:10:34;;;;;;;0.00;0.00;;;13.10;99.90;;;;;;4930797;29;20091;-75
2021/10/26 09:16:46;;;;;;;0.45;0.25;;;13.60;99.90;;;;;;4933839;29;20035;-76
2021/10/26 09:19:18;;;;;;;0.00;0.00;;;14.10;99.90;;;;;;4927231;29;20391;-76
2021/10/26 09:21:59;;;;;;;0.10;0.10;;;14.50;99.90;;;;;;4933944;29;20031;-76
2021/10/26 09:24:25;;;;;;;0.00;0.00;;;15.30;99.90;;;;;;4933055;29;20031;-75
2021/10/26 09:26:58;;;;;;;3.70;1.40;;;15.60;99.90;;;;;;4916547;29;20514;-75
2021/10/26 09:29:29;;;;;;;0.80;0.47;;;15.50;99.90;;;;;;4934308;29;20095;-76
2021/10/26 09:32:04;;;;;;;0.13;0.08;;;15.30;99.90;;;;;;4932684;29;20027;-75
2021/10/26 09:34:41;;;;;;;0.00;0.00;;;15.10;99.90;;;;;;4933871;29;20551;-75
2021/10/26 09:37:07;;;;;;;0.40;0.10;;;15.00;99.90;;;;;;4923412;29;20395;-76
2021/10/26 09:39:33;;;;;;;0.17;0.17;;;14.90;99.90;;;;;;4915990;29;20038;-75
2021/10/26 09:42:03;;;;;;;0.17;0.17;;;14.70;99.90;;;;;;4924464;29;20036;-75
2021/10/26 09:44:38;;;;;;;0.10;0.10;;;14.70;99.90;;;;;;4931132;29;20134;-76
2021/10/26 09:47:18;;;;;;;0.30;0.10;;;14.70;99.90;;;;;;4931595;29;20058;-76
2021/10/26 09:49:48;;;;;;;0.00;0.00;;;14.80;99.90;;;;;;4930305;29;20035;-77
2021/10/26 09:52:22;;;;;;;0.03;0.03;;;15.00;99.90;;;;;;4930255;29;20022;-76
2021/10/26 09:54:57;;;;;;;0.00;0.00;;;15.10;99.90;;;;;;4935028;29;20066;-77
2021/10/26 09:57:37;;;;;;;0.03;0.03;;;15.20;99.90;;;;;;4933807;29;20490;-77
2021/10/26 10:00:05;;;;;;;0.10;0.00;;;15.30;99.90;;;;;;4933694;29;20027;-76
2021/10/26 10:02:31;;;;;;;6.97;0.50;;;15.40;99.90;;;;;;4932212;29;20110;-75
2021/10/26 10:04:58;;;;;;;0.00;0.00;;;15.50;99.90;;;;;;4933489;29;20578;-76
2021/10/26 10:07:33;;;;;;;0.00;0.00;;;15.50;99.90;;;;;;4934226;29;20039;-77
2021/10/26 10:10:04;;;;;;;0.63;0.17;;;15.60;99.90;;;;;;4933991;29;20399;-76
2021/10/26 10:12:31;;;;;;;0.43;0.25;;;15.80;99.90;;;;;;4931264;29;20515;-76
2021/10/26 10:14:58;;;;;;;0.15;0.15;;;15.80;99.90;;;;;;4930208;29;20059;-75
2021/10/26 10:17:26;;;;;;;0.03;0.00;;;15.90;99.90;;;;;;4930900;29;20031;-75
2021/10/26 10:19:53;;;;;;;0.00;0.00;;;16.00;99.90;;;;;;4933537;29;20050;-75
2021/10/26 10:22:27;;;;;;;1.38;0.45;;;16.10;99.90;;;;;;4916333;29;20031;-73
2021/10/26 10:25:03;;;;;;;0.00;0.00;;;16.10;99.90;;;;;;4932317;29;20372;-72
2021/10/26 10:27:37;;;;;;;0.15;0.15;;;16.10;99.90;;;;;;4932538;29;20042;-73
2021/10/26 10:30:08;;;;;;;0.20;0.17;;;16.10;99.90;;;;;;4931938;29;20080;-74
2021/10/26 10:32:34;;;;;;;0.00;0.00;;;16.10;99.90;;;;;;4932153;29;20078;-75
2021/10/26 10:35:01;;;;;;;0.00;0.00;;;16.20;99.90;;;;;;4934587;29;20031;-75
2021/10/26 10:37:31;;;;;;;6.75;0.70;;;16.30;99.90;;;;;;4935380;29;20031;-75
2021/10/26 10:40:03;;;;;;;0.00;0.00;;;16.40;99.90;;;;;;4933623;29;20511;-75
2021/10/26 10:42:30;;;;;;;0.03;0.00;;;16.50;99.90;;;;;;4926347;29;20065;-75
2021/10/26 10:45:01;;;;;;;0.50;0.50;;;16.50;99.90;;;;;;4931221;29;20031;-76
2021/10/26 10:47:33;;;;;;;0.17;0.00;;;16.40;99.90;;;;;;4932501;29;20019;-76
2021/10/26 10:49:59;;;;;;;0.00;0.00;;;16.60;99.90;;;;;;4929144;29;20031;-77
2021/10/26 10:52:34;;;;;;;0.77;0.77;;;16.70;99.90;;;;;;4931252;29;20024;-75
2021/10/26 10:55:22;;;;;;;9.30;2.53;;;16.90;99.90;;;;;;4934188;29;20032;-76
2021/10/26 10:57:48;;;;;;;0.00;0.00;;;17.00;99.90;;;;;;4935249;29;20031;-75
2021/10/26 11:00:33;;;;;;;0.00;0.00;;;17.00;99.90;;;;;;4933623;29;20031;-76
2021/10/26 11:02:59;;;;;;;0.03;0.00;;;17.00;99.90;;;;;;4930801;29;20115;-76
2021/10/26 11:05:35;;;;;;;0.00;0.00;;;17.10;99.90;;;;;;4935529;29;20476;-76
2021/10/26 11:08:39;;;;;;;1.23;0.60;;;17.50;99.90;;;;;;4932805;29;20106;-75
2021/10/26 11:11:05;;;;;;;0.20;0.20;;;17.90;99.90;;;;;;4927620;29;20059;-78
2021/10/26 11:13:35;;;;;;;3.22;0.50;;;17.70;99.90;;;;;;4928042;29;20420;-75
2021/10/26 11:16:05;;;;;;;0.05;0.03;;;17.60;99.90;;;;;;4930657;29;20047;-77
2021/10/26 11:18:39;;;;;;;0.08;0.08;;;18.10;99.90;;;;;;4930401;29;20066;-76
2021/10/26 11:21:07;;;;;;;0.15;0.05;;;18.60;99.90;;;;;;4934619;29;20024;-75
2021/10/26 11:23:58;;;;;;;0.35;0.35;;;18.40;99.90;;;;;;4932317;29;20042;-75
2021/10/26 11:26:45;;;;;;;4.85;2.08;;;18.00;99.90;;;;;;4922965;29;20058;-75
2021/10/26 11:29:13;;;;;;;0.85;0.10;;;18.10;99.90;;;;;;4934992;29;20426;-75
2021/10/26 11:31:51;;;;;;;0.25;0.25;;;18.20;99.90;;;;;;4933297;29;20016;-75
2021/10/26 11:34:24;;;;;;;0.05;0.05;;;18.00;99.90;;;;;;4938321;29;20031;-75
2021/10/26 11:37:02;;;;;;;;;;;17.90;99.90;;;;;;4938962;29;20023;-72
2021/10/26 11:39:28;;;;;;;0.05;0.05;;;18.10;99.90;;;;;;4924969;29;19949;-75
2021/10/26 11:41:57;;;;;;;0.00;0.00;;;18.20;99.90;;;;;;4934874;29;20031;-73
2021/10/26 11:44:23;;;;;;;1.42;0.93;;;18.10;99.90;;;;;;4936070;29;20050;-73
2021/10/26 11:46:50;;;;;;;0.55;0.45;;;17.70;99.90;;;;;;4941049;29;20027;-75
2021/10/26 11:49:20;;;;;;;0.00;0.00;;;17.50;99.90;;;;;;4917666;29;20417;-73
2021/10/26 11:51:58;;;;;;;0.80;0.43;;;17.70;99.90;;;;;;4932697;29;20055;-73
2021/10/26 11:54:35;;;;;;;0.80;0.80;;;18.00;99.90;;;;;;4933568;29;20490;-73
2021/10/26 11:57:06;;;;;;;0.45;0.45;;;18.20;99.90;;;;;;4935240;29;20011;-74
2021/10/26 11:59:40;;;;;;;0.90;0.45;;;18.20;99.90;;;;;;4937268;29;20079;-73
2021/10/26 12:02:14;;;;;;;0.00;0.00;;;18.40;99.90;;;;;;4933248;29;20024;-73
2021/10/26 12:04:51;;;;;;;0.13;0.13;;;18.30;99.90;;;;;;4925448;29;20138;-74
2021/10/26 12:07:19;;;;;;;0.25;0.20;;;18.40;99.90;;;;;;4932221;29;20063;-76
2021/10/26 12:09:48;;;;;;;0.32;0.32;;;18.40;99.90;;;;;;4934917;29;20380;-76
2021/10/26 12:12:19;;;;;;;0.25;0.15;;;18.40;99.90;;;;;;4934619;29;20106;-76
2021/10/26 12:14:52;;;;;;;0.00;0.00;;;18.70;99.90;;;;;;4940843;29;20035;-76
2021/10/26 12:17:34;;;;;;;;;;;18.40;99.90;;;;;;4919086;29;20085;-76
2021/10/26 12:22:45;;;;;;;3.03;0.80;;;18.30;99.90;;;;;;4932784;29;20028;-77
2021/10/26 12:25:21;;;;;;;0.00;0.00;;;18.30;99.90;;;;;;4952975;29;20383;-77
2021/10/26 12:27:51;;;;;;;9.65;0.90;;;17.90;99.90;;;;;;4942407;29;20081;-78
2021/10/26 12:30:19;;;;;;;0.00;0.00;;;18.10;99.90;;;;;;4950192;29;20570;-79
2021/10/26 12:33:03;;;;;;;0.00;0.00;;;18.20;99.90;;;;;;4939429;29;20100;-77
2021/10/26 12:35:53;;;;;;;3.05;0.70;;;18.40;99.90;;;;;;4922051;29;20036;-75
2021/10/26 12:38:29;;;;;;;5.78;1.80;;;18.50;99.90;;;;;;4945202;29;20027;-77
2021/10/26 12:41:15;;;;;;;0.30;0.20;;;18.70;99.90;;;;;;4924995;29;20110;-77
2021/10/26 12:43:42;;;;;;;0.00;0.00;;;18.40;99.90;;;;;;4931488;29;20055;-77
2021/10/26 12:46:24;;;;;;;2.95;1.45;;;18.30;99.90;;;;;;4937371;29;20024;-76
2021/10/26 12:49:02;;;;;;;0.00;0.00;;;18.50;99.90;;;;;;4934721;29;20038;-78
2021/10/26 12:51:29;;;;;;;0.15;0.15;;;18.60;99.90;;;;;;4931663;29;20053;-76
2021/10/26 12:53:55;;;;;;;2.75;1.27;;;18.80;99.90;;;;;;4920879;29;20123;-76
2021/10/26 12:56:29;;;;;;;0.00;0.00;;;18.40;99.90;;;;;;4933777;29;20470;-76
2021/10/26 12:58:56;;;;;;;0.00;0.00;;;18.40;99.90;;;;;;4936893;29;20042;-77
2021/10/26 13:01:27;;;;;;;0.00;0.00;;;18.40;99.90;;;;;;4937911;29;20034;-76
2021/10/26 13:03:57;;;;;;;0.00;0.00;;;18.50;99.90;;;;;;4928579;29;20463;-76
2021/10/26 13:06:25;;;;;;;0.00;0.00;;;18.50;99.90;;;;;;4912606;29;20055;-76
2021/10/26 13:08:52;;;;;;;2.83;0.43;;;18.50;99.90;;;;;;4916509;29;20036;-76
2021/10/26 13:11:28;;;;;;;0.00;0.00;;;18.50;99.90;;;;;;4928933;29;20028;-77